Time;durP1;ratioP1;P1;durP2;ratioP2;P2;SDS_P1;SDS_P2;PMS_P1;PMS_P2;Temp;Humidity;BMP_temperature;BMP_pressure;BME280_temperature;BME280_humidity;BME280_pressure;Samples;Min_cycle;Max_cycle;Signal;HPM_P1;HPM_P2
2022/08/30 00:01:24;;;;;;;14.80;12.60;;;;;;;12.96;100.00;99310.70;105088;1270;61341;-69
2022/08/30 00:03:51;;;;;;;15.70;13.40;;;;;;;12.93;100.00;99312.55;105107;1270;76679;-71
2022/08/30 00:06:18;;;;;;;16.90;12.50;;;;;;;12.90;100.00;99317.20;105051;1270;67383;-71
2022/08/30 00:08:47;;;;;;;17.60;13.20;;;;;;;12.87;100.00;99316.16;105007;1270;73495;-70
2022/08/30 00:11:18;;;;;;;16.00;12.70;;;;;;;12.83;100.00;99314.15;105111;1270;61407;-70
2022/08/30 00:13:46;;;;;;;13.10;11.70;;;;;;;12.79;100.00;99317.80;105066;1270;61893;-70
2022/08/30 00:16:12;;;;;;;11.70;10.30;;;;;;;12.74;100.00;99323.13;105025;1270;76245;-71
2022/08/30 00:18:39;;;;;;;13.90;12.10;;;;;;;12.67;100.00;99322.52;105013;1270;61333;-71
2022/08/30 00:21:06;;;;;;;16.90;13.20;;;;;;;12.65;100.00;99322.21;104973;1271;73354;-71
2022/08/30 00:23:32;;;;;;;14.90;13.30;;;;;;;12.64;100.00;99319.90;105068;1270;61269;-70
2022/08/30 00:25:59;;;;;;;12.10;10.20;;;;;;;12.63;100.00;99321.27;104882;1271;61358;-70
2022/08/30 00:28:25;;;;;;;12.40;11.20;;;;;;;12.57;100.00;99321.66;105053;1270;61411;-70
2022/08/30 00:30:51;;;;;;;14.50;11.60;;;;;;;12.51;100.00;99320.45;105064;1270;61532;-69
2022/08/30 00:33:17;;;;;;;14.20;11.80;;;;;;;12.49;100.00;99320.05;105029;1270;61415;-70
2022/08/30 00:35:43;;;;;;;13.30;12.10;;;;;;;12.49;100.00;99317.61;105045;1270;61374;-70
2022/08/30 00:38:11;;;;;;;13.20;11.80;;;;;;;12.49;100.00;99321.73;104881;1271;61208;-71
2022/08/30 00:40:40;;;;;;;13.00;11.20;;;;;;;12.49;100.00;99324.57;105072;1270;61280;-70
2022/08/30 00:43:12;;;;;;;12.30;11.10;;;;;;;12.47;100.00;99319.82;105141;1270;70314;-70
2022/08/30 00:45:39;;;;;;;14.60;12.90;;;;;;;12.46;100.00;99320.27;105057;1270;73485;-70
2022/08/30 00:48:06;;;;;;;15.60;12.70;;;;;;;12.45;100.00;99318.54;105006;1270;61342;-70
2022/08/30 00:50:42;;;;;;;15.00;13.10;;;;;;;12.47;100.00;99318.23;105050;1270;61188;-70
2022/08/30 00:53:14;;;;;;;13.90;11.20;;;;;;;12.48;100.00;99319.06;104912;1270;75339;-70
2022/08/30 00:55:42;;;;;;;13.50;12.20;;;;;;;12.49;100.00;99319.56;105085;1270;70759;-70
2022/08/30 00:58:15;;;;;;;17.70;13.00;;;;;;;12.49;100.00;99322.04;105058;1270;74707;-70
2022/08/30 01:00:42;;;;;;;13.20;11.90;;;;;;;12.47;100.00;99320.39;105068;1270;61368;-70
2022/08/30 01:03:08;;;;;;;15.50;12.10;;;;;;;12.46;100.00;99317.42;105187;1270;61259;-70
2022/08/30 01:05:37;;;;;;;14.10;12.60;;;;;;;12.45;100.00;99318.09;105015;1270;61385;-69
2022/08/30 01:08:04;;;;;;;14.40;12.50;;;;;;;12.43;100.00;99315.70;105061;1270;69632;-70
2022/08/30 01:10:33;;;;;;;14.20;11.50;;;;;;;12.40;100.00;99313.76;105099;1270;72613;-69
2022/08/30 01:12:59;;;;;;;12.10;10.80;;;;;;;12.39;100.00;99317.02;105038;1270;61788;-71
2022/08/30 01:15:26;;;;;;;14.70;13.00;;;;;;;12.37;100.00;99313.63;104710;1270;61332;-70
2022/08/30 01:17:52;;;;;;;17.10;13.80;;;;;;;12.35;100.00;99317.54;105069;1270;61358;-70
2022/08/30 01:20:35;;;;;;;14.00;12.60;;;;;;;12.32;100.00;99318.96;105059;1270;61283;-69
2022/08/30 01:23:11;;;;;;;15.30;13.10;;;;;;;12.28;100.00;99313.67;105077;1268;74315;-71
2022/08/30 01:25:41;;;;;;;17.00;15.30;;;;;;;12.27;100.00;99311.61;105076;1270;61332;-71
2022/08/30 01:28:14;;;;;;;18.00;15.20;;;;;;;12.27;100.00;99311.82;105065;1270;61599;-68
2022/08/30 01:30:43;;;;;;;17.50;14.50;;;;;;;12.26;100.00;99311.50;105150;1270;76490;-69
2022/08/30 01:33:11;;;;;;;15.00;13.50;;;;;;;12.24;100.00;99311.98;105071;1270;69488;-71
2022/08/30 01:35:45;;;;;;;17.30;15.50;;;;;;;12.21;100.00;99307.25;104931;1270;72961;-70
2022/08/30 01:38:13;;;;;;;20.90;17.00;;;;;;;12.18;100.00;99307.25;105042;1270;61286;-70
2022/08/30 01:40:39;;;;;;;17.80;14.90;;;;;;;12.18;100.00;99306.88;105058;1270;62224;-70
2022/08/30 01:43:06;;;;;;;18.10;15.50;;;;;;;12.18;100.00;99307.08;105047;1270;61401;-70
2022/08/30 01:45:33;;;;;;;17.20;15.20;;;;;;;12.17;100.00;99307.19;105217;1270;69442;-69
2022/08/30 01:47:59;;;;;;;19.30;17.30;;;;;;;12.14;100.00;99306.81;105035;1270;61327;-70
2022/08/30 01:50:25;;;;;;;23.80;19.10;;;;;;;12.13;100.00;99306.33;105068;1270;61316;-70
2022/08/30 01:52:51;;;;;;;18.70;16.60;;;;;;;12.13;100.00;99310.45;105021;1270;61372;-70
2022/08/30 01:55:18;;;;;;;16.40;14.70;;;;;;;12.12;100.00;99307.35;105063;1270;61463;-71
2022/08/30 01:57:45;;;;;;;16.50;13.70;;;;;;;12.11;100.00;99310.59;105072;1270;61329;-71
2022/08/30 02:00:37;;;;;;;15.70;14.10;;;;;;;12.10;100.00;99313.13;105057;1270;61228;-71
2022/08/30 02:03:05;;;;;;;19.00;15.50;;;;;;;12.11;100.00;99312.60;104989;1271;61412;-70
2022/08/30 02:05:30;;;;;;;17.00;15.20;;;;;;;12.12;100.00;99309.11;105178;1270;61329;-70
2022/08/30 02:07:57;;;;;;;18.10;13.80;;;;;;;12.13;100.00;99306.36;105047;1270;61387;-70
2022/08/30 02:10:23;;;;;;;16.60;14.80;;;;;;;12.13;100.00;99307.06;105064;1270;61553;-70
2022/08/30 02:12:49;;;;;;;17.60;14.40;;;;;;;12.12;100.00;99304.12;105046;1270;61402;-70
2022/08/30 02:15:16;;;;;;;15.20;13.60;;;;;;;12.10;100.00;99305.16;105044;1270;61377;-70
2022/08/30 02:17:43;;;;;;;15.90;12.90;;;;;;;12.07;100.00;99303.55;104928;1274;61353;-70
2022/08/30 02:20:09;;;;;;;14.10;12.60;;;;;;;12.04;100.00;99306.40;105081;1270;61234;-70
2022/08/30 02:22:36;;;;;;;14.30;12.50;;;;;;;12.01;100.00;99305.94;104966;1271;61572;-71
2022/08/30 02:25:06;;;;;;;14.60;12.70;;;;;;;11.97;100.00;99299.42;105062;1270;61314;-71
2022/08/30 02:27:32;;;;;;;14.80;13.20;;;;;;;11.94;100.00;99301.77;105044;1268;61350;-71
2022/08/30 02:29:58;;;;;;;15.00;12.70;;;;;;;11.92;100.00;99302.98;105049;1270;61817;-71
2022/08/30 02:32:25;;;;;;;14.40;13.00;;;;;;;11.90;100.00;99298.52;105049;1270;61351;-71
2022/08/30 02:34:50;;;;;;;17.10;12.40;;;;;;;11.88;100.00;99299.16;105044;1270;61346;-72
2022/08/30 02:37:17;;;;;;;14.20;11.90;;;;;;;11.85;100.00;99300.37;105091;1270;61371;-71
2022/08/30 02:39:44;;;;;;;15.30;12.40;;;;;;;11.82;100.00;99295.42;105044;1270;61265;-71
2022/08/30 02:42:10;;;;;;;17.10;12.90;;;;;;;11.80;100.00;99299.81;105042;1270;61318;-71
2022/08/30 02:44:36;;;;;;;16.60;14.60;;;;;;;11.80;100.00;99299.13;104888;1271;61301;-71
2022/08/30 02:47:03;;;;;;;17.90;12.20;;;;;;;11.78;100.00;99306.73;105088;1270;61368;-70
2022/08/30 02:49:29;;;;;;;14.80;12.30;;;;;;;11.77;100.00;99308.25;105050;1270;61360;-70
2022/08/30 02:51:55;;;;;;;14.40;12.40;;;;;;;11.75;100.00;99309.45;105093;1270;61403;-71
2022/08/30 02:54:21;;;;;;;18.90;14.20;;;;;;;11.73;100.00;99309.02;105062;1270;61320;-71
2022/08/30 02:56:48;;;;;;;14.30;12.90;;;;;;;11.71;100.00;99307.39;105073;1270;61249;-71
2022/08/30 02:59:16;;;;;;;13.50;12.10;;;;;;;11.68;100.00;99307.26;105081;1270;61260;-71
2022/08/30 03:01:43;;;;;;;12.70;11.40;;;;;;;11.61;100.00;99304.96;105018;1270;61438;-69
2022/08/30 03:04:09;;;;;;;10.90;9.70;;;;;;;11.54;100.00;99306.73;105047;1270;61370;-70
2022/08/30 03:06:35;;;;;;;12.60;11.00;;;;;;;11.50;100.00;99302.92;105071;1270;61326;-70
2022/08/30 03:09:02;;;;;;;13.30;11.90;;;;;;;11.47;100.00;99302.02;105074;1270;61378;-70
2022/08/30 03:11:28;;;;;;;12.50;10.90;;;;;;;11.45;100.00;99301.27;105044;1270;61333;-70
2022/08/30 03:13:55;;;;;;;16.10;13.80;;;;;;;11.42;100.00;99300.73;105059;1270;61377;-70
2022/08/30 03:16:21;;;;;;;13.80;12.00;;;;;;;11.41;100.00;99304.15;105057;1270;61354;-69
2022/08/30 03:18:47;;;;;;;14.00;12.40;;;;;;;11.41;100.00;99304.34;105078;1270;61287;-69
2022/08/30 03:21:15;;;;;;;13.40;11.90;;;;;;;11.41;100.00;99302.75;105172;1270;61410;-70
2022/08/30 03:23:43;;;;;;;13.20;11.70;;;;;;;11.41;100.00;99305.09;105056;1270;61408;-70
2022/08/30 03:26:11;;;;;;;15.30;12.20;;;;;;;11.40;100.00;99306.73;105106;1270;74501;-70
2022/08/30 03:28:38;;;;;;;15.00;13.20;;;;;;;11.39;100.00;99308.05;104843;1270;61243;-70
2022/08/30 03:31:04;;;;;;;15.30;11.80;;;;;;;11.39;100.00;99309.66;105074;1270;61269;-70
2022/08/30 03:33:30;;;;;;;14.50;11.80;;;;;;;11.37;100.00;99310.14;104885;1271;75392;-70
2022/08/30 03:35:56;;;;;;;13.30;11.50;;;;;;;11.37;100.00;99306.05;105019;1270;61292;-71
2022/08/30 03:38:23;;;;;;;14.10;12.30;;;;;;;11.38;100.00;99308.33;105113;1270;63071;-70
2022/08/30 03:40:49;;;;;;;14.10;11.90;;;;;;;11.38;100.00;99310.78;105055;1270;61186;-70
2022/08/30 03:43:15;;;;;;;13.50;11.70;;;;;;;11.39;100.00;99312.64;105028;1270;61416;-71
2022/08/30 03:45:41;;;;;;;12.70;11.40;;;;;;;11.39;100.00;99317.43;105037;1270;61358;-70
2022/08/30 03:48:07;;;;;;;12.80;10.20;;;;;;;11.38;100.00;99319.30;104945;1270;61288;-70
2022/08/30 03:50:34;;;;;;;13.90;11.20;;;;;;;11.37;100.00;99322.02;105067;1270;61273;-70
2022/08/30 03:53:00;;;;;;;17.00;13.00;;;;;;;11.37;100.00;99324.20;105044;1270;61377;-70
2022/08/30 03:55:28;;;;;;;20.90;14.10;;;;;;;11.38;100.00;99320.75;105071;1270;61239;-70
2022/08/30 03:57:55;;;;;;;14.60;13.10;;;;;;;11.41;100.00;99319.49;105150;1270;61325;-69
2022/08/30 04:00:21;;;;;;;18.00;13.00;;;;;;;11.43;100.00;99320.23;105131;1270;61373;-70
2022/08/30 04:02:47;;;;;;;16.50;14.70;;;;;;;11.46;100.00;99322.36;105087;1270;61380;-70
2022/08/30 04:05:13;;;;;;;14.30;12.80;;;;;;;11.49;100.00;99324.46;105109;1270;61396;-70
2022/08/30 04:07:39;;;;;;;13.30;10.70;;;;;;;11.52;100.00;99327.48;105087;1270;61298;-70
2022/08/30 04:10:07;;;;;;;11.70;10.40;;;;;;;11.53;100.00;99332.41;105054;1271;61279;-70
2022/08/30 04:12:33;;;;;;;11.10;9.30;;;;;;;11.51;100.00;99342.17;105116;1270;61371;-69
2022/08/30 04:14:59;;;;;;;10.80;8.40;;;;;;;11.45;100.00;99343.96;105076;1270;61463;-71
2022/08/30 04:17:26;;;;;;;12.10;8.70;;;;;;;11.54;100.00;99344.60;105087;1270;61746;-72
2022/08/30 04:19:52;;;;;;;10.30;9.20;;;;;;;11.84;100.00;99346.55;105086;1270;61225;-71
2022/08/30 04:22:19;;;;;;;13.30;8.40;;;;;;;12.14;100.00;99348.52;105123;1270;61372;-71
2022/08/30 04:24:44;;;;;;;9.00;7.90;;;;;;;12.45;100.00;99348.52;105102;1270;61292;-71
2022/08/30 04:27:11;;;;;;;9.80;8.10;;;;;;;12.78;100.00;99350.90;105076;1270;61364;-71
2022/08/30 04:29:37;;;;;;;9.20;7.30;;;;;;;13.09;100.00;99349.73;105070;1270;61319;-71
2022/08/30 04:32:04;;;;;;;9.80;8.30;;;;;;;13.41;100.00;99352.46;105082;1270;61354;-70
2022/08/30 04:34:30;;;;;;;10.40;7.60;;;;;;;13.80;100.00;99346.20;105109;1270;61272;-71
2022/08/30 04:36:56;;;;;;;12.50;8.30;;;;;;;14.19;100.00;99348.65;104955;1274;61451;-70
2022/08/30 04:39:22;;;;;;;13.60;10.90;;;;;;;14.59;100.00;99352.35;105080;1270;61395;-69
2022/08/30 04:41:48;;;;;;;11.00;8.70;;;;;;;14.98;100.00;99352.87;105079;1270;61293;-71
2022/08/30 04:44:14;;;;;;;11.00;8.50;;;;;;;15.35;100.00;99357.46;105070;1271;61272;-71
2022/08/30 04:46:40;;;;;;;12.70;8.60;;;;;;;15.68;100.00;99361.55;105016;1270;61336;-69
2022/08/30 04:49:07;;;;;;;10.00;8.40;;;;;;;15.98;100.00;99360.88;105057;1270;61343;-70
2022/08/30 04:51:33;;;;;;;12.30;8.50;;;;;;;16.23;100.00;99361.27;105100;1270;61377;-70
2022/08/30 04:53:59;;;;;;;8.70;7.30;;;;;;;16.48;100.00;99355.27;105065;1270;61231;-70
2022/08/30 04:56:25;;;;;;;8.80;7.70;;;;;;;16.66;100.00;99355.31;105090;1271;61393;-70
2022/08/30 04:58:53;;;;;;;8.50;7.30;;;;;;;16.90;100.00;99354.86;105106;1270;61353;-71
2022/08/30 05:01:25;;;;;;;8.90;7.00;;;;;;;17.28;100.00;99355.23;105207;1270;61278;-71
2022/08/30 05:03:53;;;;;;;8.30;7.50;;;;;;;17.61;100.00;99359.13;104962;1271;61368;-70
2022/08/30 05:06:21;;;;;;;11.00;7.50;;;;;;;17.90;100.00;99361.02;105116;1270;61161;-70
2022/08/30 05:08:47;;;;;;;8.80;7.70;;;;;;;18.22;100.00;99363.84;105080;1271;75982;-70
2022/08/30 05:11:15;;;;;;;10.00;7.40;;;;;;;18.44;100.00;99360.70;105095;1271;61308;-71
2022/08/30 05:13:42;;;;;;;10.40;8.50;;;;;;;18.70;100.00;99361.48;105093;1270;74371;-70
2022/08/30 05:16:09;;;;;;;11.00;8.90;;;;;;;18.94;100.00;99365.14;105068;1270;61281;-69
2022/08/30 05:18:36;;;;;;;9.00;7.90;;;;;;;19.14;100.00;99366.30;105012;1272;61214;-71
2022/08/30 05:21:11;;;;;;;10.90;7.90;;;;;;;19.28;100.00;99368.20;105105;1270;76269;-71
2022/08/30 05:23:39;;;;;;;10.80;8.80;;;;;;;19.46;100.00;99371.66;105091;1270;70556;-71
2022/08/30 05:26:18;;;;;;;12.30;10.10;;;;;;;19.60;100.00;99372.81;105018;1271;74797;-72
2022/08/30 05:28:44;;;;;;;13.00;10.00;;;;;;;19.75;100.00;99372.77;105092;1271;61188;-71
2022/08/30 05:31:33;;;;;;;11.20;9.50;;;;;;;19.83;100.00;99372.63;105123;1271;61895;-71
2022/08/30 05:34:00;;;;;;;9.60;8.70;;;;;;;19.97;100.00;99376.52;105099;1270;75472;-71
2022/08/30 05:36:29;;;;;;;11.60;9.30;;;;;;;20.07;100.00;99375.22;105103;1270;69455;-70
2022/08/30 05:38:55;;;;;;;12.90;9.60;;;;;;;20.10;100.00;99374.55;105167;1271;73451;-71
2022/08/30 05:41:23;;;;;;;13.20;9.00;;;;;;;20.20;100.00;99370.86;105103;1270;61245;-69
2022/08/30 05:43:52;;;;;;;10.10;9.00;;;;;;;20.25;100.00;99369.05;105186;1271;61814;-71
2022/08/30 05:46:19;;;;;;;10.10;9.10;;;;;;;20.28;100.00;99370.52;105138;1271;76298;-71
2022/08/30 05:48:48;;;;;;;10.20;8.70;;;;;;;20.36;100.00;99369.39;105049;1270;69481;-72
2022/08/30 05:51:16;;;;;;;10.10;8.50;;;;;;;20.58;100.00;99368.83;105048;1270;74693;-73
2022/08/30 05:53:44;;;;;;;10.30;8.10;;;;;;;20.70;100.00;99367.75;105127;1271;61237;-71
2022/08/30 05:56:12;;;;;;;11.00;8.10;;;;;;;20.90;100.00;99366.02;105115;1271;61862;-71
2022/08/30 05:58:38;;;;;;;9.60;8.60;;;;;;;21.00;100.00;99371.15;105161;1270;75363;-73
2022/08/30 06:01:06;;;;;;;9.70;7.50;;;;;;;21.00;100.00;99370.05;104860;1271;61377;-72
2022/08/30 06:03:32;;;;;;;7.90;7.10;;;;;;;21.06;100.00;99367.57;105053;1271;74377;-70
2022/08/30 06:05:59;;;;;;;9.10;7.20;;;;;;;21.20;100.00;99369.61;104980;1270;61180;-72
2022/08/30 06:08:25;;;;;;;9.10;8.00;;;;;;;21.25;100.00;99372.11;105108;1270;61996;-70
2022/08/30 06:10:52;;;;;;;9.90;7.60;;;;;;;21.34;100.00;99369.61;105088;1270;61204;-72
2022/08/30 06:13:18;;;;;;;9.60;7.20;;;;;;;21.42;100.00;99371.23;105199;1270;70312;-72
2022/08/30 06:15:45;;;;;;;11.40;7.50;;;;;;;21.49;100.00;99374.11;104999;1270;61315;-71
2022/08/30 06:18:12;;;;;;;11.00;7.90;;;;;;;21.60;100.00;99373.11;105055;1271;61374;-71
2022/08/30 06:20:41;;;;;;;10.20;7.10;;;;;;;21.55;100.00;99375.49;103875;1270;1716131;-70
2022/08/30 06:23:09;;;;;;;9.60;7.10;;;;;;;21.21;100.00;99376.92;105116;1271;75460;-72
2022/08/30 06:25:37;;;;;;;10.60;6.90;;;;;;;21.10;100.00;99380.40;105079;1271;70391;-70
2022/08/30 06:28:05;;;;;;;11.10;8.20;;;;;;;21.16;100.00;99381.04;105083;1271;73370;-71
2022/08/30 06:30:32;;;;;;;10.90;8.60;;;;;;;21.14;100.00;99378.75;105120;1271;61365;-71
2022/08/30 06:32:58;;;;;;;9.00;7.30;;;;;;;21.26;100.00;99379.10;105104;1270;61285;-71
2022/08/30 06:35:26;;;;;;;11.30;8.20;;;;;;;21.31;100.00;99377.83;104902;1274;76399;-70
2022/08/30 06:37:53;;;;;;;9.60;8.00;;;;;;;21.34;100.00;99376.28;105137;1271;69388;-71
2022/08/30 06:40:20;;;;;;;11.20;7.40;;;;;;;21.39;100.00;99375.17;105106;1271;72504;-71
2022/08/30 06:42:47;;;;;;;9.60;8.20;;;;;;;21.46;100.00;99372.85;105115;1271;61148;-70
2022/08/30 06:45:15;;;;;;;8.70;7.70;;;;;;;21.39;100.00;99375.34;105120;1271;61289;-71
2022/08/30 06:47:41;;;;;;;14.30;8.70;;;;;;;21.21;100.00;99378.35;105047;1270;75467;-71
2022/08/30 06:50:11;;;;;;;9.50;8.10;;;;;;;21.04;100.00;99376.70;105165;1270;69306;-72
2022/08/30 06:52:38;;;;;;;13.40;9.50;;;;;;;20.94;100.00;99379.77;105116;1270;74690;-71
2022/08/30 06:55:04;;;;;;;13.50;9.90;;;;;;;20.79;100.00;99376.61;105121;1271;61289;-71
2022/08/30 06:57:32;;;;;;;13.20;11.40;;;;;;;20.66;100.00;99380.79;105103;1271;61836;-71
2022/08/30 06:59:58;;;;;;;15.40;11.10;;;;;;;20.42;100.00;99383.09;105086;1271;61470;-72
2022/08/30 07:02:24;;;;;;;14.50;10.00;;;;;;;20.33;100.00;99384.52;104995;1271;61323;-73
2022/08/30 07:04:51;;;;;;;16.90;10.40;;;;;;;20.30;100.00;99384.96;105047;1271;61323;-70
2022/08/30 07:07:17;;;;;;;11.60;9.60;;;;;;;20.31;100.00;99385.48;105061;1271;61246;-71
2022/08/30 07:09:43;;;;;;;14.60;9.30;;;;;;;20.32;100.00;99383.88;105085;1271;61263;-72
2022/08/30 07:12:11;;;;;;;14.60;9.10;;;;;;;20.32;100.00;99389.48;105063;1270;61387;-69
2022/08/30 07:14:38;;;;;;;13.50;9.80;;;;;;;20.27;100.00;99389.95;105039;1271;61230;-72
2022/08/30 07:18:49;;;;;;;14.30;11.30;;;;;;;20.26;100.00;99390.43;105093;1271;73384;-71
2022/08/30 07:19:54;;;;;;;11.80;9.10;;;;;;;20.25;100.00;99392.02;105035;1270;61301;-71
2022/08/30 07:22:20;;;;;;;11.90;8.50;;;;;;;20.25;100.00;99389.31;105154;1271;61351;-71
2022/08/30 07:24:47;;;;;;;12.00;9.20;;;;;;;20.26;100.00;99394.09;105073;1271;61301;-70
2022/08/30 07:27:13;;;;;;;14.40;10.70;;;;;;;20.35;100.00;99393.18;105052;1271;61350;-71
2022/08/30 07:29:39;;;;;;;13.00;9.50;;;;;;;20.36;100.00;99390.68;105069;1270;61285;-71
2022/08/30 07:32:05;;;;;;;10.40;9.30;;;;;;;20.34;100.00;99390.14;105005;1271;61369;-71
2022/08/30 07:34:32;;;;;;;12.30;8.00;;;;;;;20.37;100.00;99389.80;104927;1274;61376;-71
2022/08/30 07:36:58;;;;;;;14.90;8.60;;;;;;;20.35;100.00;99394.52;105045;1271;61393;-72
2022/08/30 07:39:24;;;;;;;10.60;7.80;;;;;;;20.34;100.00;99394.91;104919;1273;61297;-72
2022/08/30 07:41:50;;;;;;;11.30;8.30;;;;;;;20.31;100.00;99395.92;105002;1271;61375;-71
2022/08/30 07:44:16;;;;;;;12.00;8.80;;;;;;;20.43;100.00;99395.42;104844;1273;61451;-71
2022/08/30 07:46:42;;;;;;;22.30;8.90;;;;;;;20.56;100.00;99397.56;105061;1271;61361;-70
2022/08/30 07:49:10;;;;;;;11.40;8.20;;;;;;;20.65;100.00;99396.80;105112;1271;61370;-72
2022/08/30 07:51:37;;;;;;;10.60;7.30;;;;;;;20.77;100.00;99391.73;105111;1271;61464;-71
2022/08/30 07:54:03;;;;;;;10.90;8.00;;;;;;;20.80;100.00;99389.25;105102;1271;61388;-71
2022/08/30 07:56:30;;;;;;;13.10;8.40;;;;;;;20.80;100.00;99390.20;104888;1274;61803;-71
2022/08/30 07:58:56;;;;;;;10.00;7.50;;;;;;;20.94;100.00;99391.32;105062;1271;61532;-71
2022/08/30 08:01:22;;;;;;;13.90;6.80;;;;;;;21.07;100.00;99392.45;105075;1271;61393;-71
2022/08/30 08:03:49;;;;;;;11.60;7.10;;;;;;;21.16;100.00;99395.14;104997;1271;61391;-71
2022/08/30 08:06:17;;;;;;;20.10;9.10;;;;;;;21.18;100.00;99398.67;104944;1271;61430;-70
2022/08/30 08:08:44;;;;;;;20.80;9.90;;;;;;;21.29;100.00;99401.75;105064;1271;61346;-72
2022/08/30 08:11:14;;;;;;;7.00;5.70;;;;;;;21.39;100.00;99402.96;105026;1271;61389;-72
2022/08/30 08:13:41;;;;;;;12.70;6.60;;;;;;;21.40;100.00;99401.86;105088;1270;76357;-72
2022/08/30 08:16:07;;;;;;;9.20;6.00;;;;;;;21.46;100.00;99403.70;105086;1271;69430;-71
2022/08/30 08:18:33;;;;;;;9.70;6.80;;;;;;;21.69;100.00;99400.77;105063;1270;61399;-71
2022/08/30 08:21:00;;;;;;;9.60;6.80;;;;;;;21.99;100.00;99401.75;104909;1271;61390;-71
2022/08/30 08:23:27;;;;;;;10.20;7.60;;;;;;;22.25;100.00;99404.02;104933;1271;61297;-72
2022/08/30 08:25:54;;;;;;;9.20;6.70;;;;;;;22.35;100.00;99400.52;105100;1270;75441;-71
2022/08/30 08:28:20;;;;;;;9.00;7.20;;;;;;;22.17;100.00;99409.52;105108;1270;61280;-71
2022/08/30 08:30:46;;;;;;;7.20;6.40;;;;;;;21.95;100.00;99415.58;105057;1271;61874;-71
2022/08/30 08:33:13;;;;;;;7.70;6.90;;;;;;;21.71;100.00;99413.91;105049;1271;61404;-72
2022/08/30 08:35:39;;;;;;;10.00;7.50;;;;;;;21.72;100.00;99411.45;105073;1270;61150;-70
2022/08/30 08:38:05;;;;;;;8.70;6.50;;;;;;;21.85;100.00;99410.66;105064;1271;61336;-70
2022/08/30 08:40:45;;;;;;;8.50;7.20;;;;;;;21.93;100.00;99409.23;105091;1271;61388;-70
2022/08/30 08:43:16;;;;;;;8.10;7.20;;;;;;;22.01;100.00;99413.20;105046;1270;74670;-71
2022/08/30 08:46:36;;;;;;;10.20;6.50;;;;;;;22.22;100.00;99412.66;105071;1270;61367;-71
2022/08/30 08:49:06;;;;;;;11.10;6.70;;;;;;;22.82;100.00;99409.45;104740;1276;62108;-72
2022/08/30 08:54:50;;;;;;;12.40;7.30;;;;;;;23.45;100.00;99412.19;104769;1277;70694;-70
2022/08/30 08:57:16;;;;;;;9.10;8.10;;;;;;;23.48;100.00;99411.80;104562;1277;73328;-72
2022/08/30 08:59:44;;;;;;;10.60;7.50;;;;;;;23.56;100.00;99411.29;104763;1276;61432;-70
2022/08/30 09:02:25;;;;;;;7.80;7.00;;;;;;;23.41;100.00;99409.38;104766;1277;62122;-71
2022/08/30 09:04:57;;;;;;;6.80;6.00;;;;;;;23.09;100.00;99412.39;104527;1276;75276;-72
2022/08/30 09:07:28;;;;;;;9.70;6.30;;;;;;;22.77;100.00;99409.11;104778;1276;69503;-71
2022/08/30 09:09:57;;;;;;;9.20;7.30;;;;;;;22.45;100.00;99408.11;104366;1277;74410;-71
2022/08/30 09:12:24;;;;;;;8.30;7.40;;;;;;;22.23;100.00;99407.66;104888;1276;61567;-72
2022/08/30 09:15:22;;;;;;;9.40;7.40;;;;;;;22.25;100.00;99405.07;104738;1276;61329;-71
2022/08/30 09:17:56;;;;;;;12.00;7.60;;;;;;;22.55;100.00;99398.85;104768;1277;75499;-71
2022/08/30 09:20:28;;;;;;;8.00;6.70;;;;;;;22.89;100.00;99401.09;104844;1276;68311;-72
2022/08/30 09:22:55;;;;;;;9.00;5.60;;;;;;;23.08;100.00;99398.63;104923;1271;74461;-72
2022/08/30 09:25:31;;;;;;;7.50;5.80;;;;;;;23.23;100.00;99401.11;105055;1270;61321;-70
2022/08/30 09:28:11;;;;;;;7.40;4.90;;;;;;;23.08;100.00;99402.81;105138;1270;61836;-71
2022/08/30 09:30:38;;;;;;;8.00;5.30;;;;;;;22.96;100.00;99399.89;104860;1271;75017;-72
2022/08/30 09:33:18;;;;;;;6.10;5.30;;;;;;;23.15;100.00;99398.17;105102;1270;68169;-72
2022/08/30 09:35:47;;;;;;;6.00;5.40;;;;;;;23.48;100.00;99396.23;105076;1270;74535;-71
2022/08/30 09:38:20;;;;;;;14.40;6.50;;;;;;;23.61;100.00;99388.42;105090;1270;61294;-71
2022/08/30 09:40:55;;;;;;;7.30;4.70;;;;;;;23.83;100.00;99385.48;105016;1271;61395;-70
2022/08/30 09:43:33;;;;;;;7.40;5.00;;;;;;;24.21;100.00;99379.23;105073;1270;75545;-71
2022/08/30 09:46:00;;;;;;;6.60;5.00;;;;;;;24.38;100.00;99378.35;105064;1270;70331;-71
2022/08/30 09:48:43;;;;;;;8.30;6.40;;;;;;;24.31;100.00;99377.66;105067;1271;74670;-71
2022/08/30 09:51:10;;;;;;;7.20;6.00;;;;;;;24.31;100.00;99381.34;105197;1270;61281;-72
2022/08/30 09:53:43;;;;;;;18.00;9.20;;;;;;;23.97;100.00;99379.65;105131;1270;61362;-71
2022/08/30 09:56:32;;;;;;;13.00;8.40;;;;;;;23.65;100.00;99387.80;104926;1271;74844;-72
2022/08/30 09:59:07;;;;;;;6.40;5.60;;;;;;;23.42;100.00;99395.30;104447;1277;70531;-71
2022/08/30 10:01:49;;;;;;;7.40;5.80;;;;;;;23.30;100.00;99390.91;104472;1277;73467;-71
2022/08/30 10:04:27;;;;;;;5.90;5.30;;;;;;;23.42;100.00;99386.02;104467;1277;61354;-71
2022/08/30 10:07:17;;;;;;;9.10;6.20;;;;;;;23.77;100.00;99382.14;104599;1277;61236;-71
2022/08/30 10:09:49;;;;;;;6.10;5.50;;;;;;;23.89;100.00;99378.03;104490;1277;74397;-71
2022/08/30 10:12:20;;;;;;;5.10;4.50;;;;;;;24.00;100.00;99374.30;104517;1277;70463;-71
2022/08/30 10:15:24;;;;;;;5.30;4.30;;;;;;;24.02;100.00;99370.20;104469;1277;73608;-71
2022/08/30 10:18:17;;;;;;;5.40;4.30;;;;;;;23.66;100.00;99375.65;103847;1285;61521;-71
2022/08/30 10:21:00;;;;;;;4.70;4.30;;;;;;;23.28;100.00;99376.92;103918;1285;61187;-71
2022/08/30 10:23:32;;;;;;;4.70;3.40;;;;;;;22.99;100.00;99373.27;103965;1285;76443;-71
2022/08/30 10:26:17;;;;;;;4.50;3.40;;;;;;;22.79;100.00;99372.61;103837;1285;69379;-71
2022/08/30 10:28:49;;;;;;;4.00;3.60;;;;;;;22.65;100.00;99366.45;103834;1285;73614;-71
2022/08/30 10:31:18;;;;;;;5.60;4.00;;;;;;;22.73;100.00;99361.05;103845;1285;61415;-71
2022/08/30 10:33:51;;;;;;;5.30;4.20;;;;;;;22.84;100.00;99363.20;103777;1287;61910;-72
2022/08/30 10:36:27;;;;;;;6.50;4.30;;;;;;;23.00;100.00;99363.05;104077;1278;75446;-71
2022/08/30 10:38:55;;;;;;;3.70;3.10;;;;;;;23.24;100.00;99363.84;104487;1277;70458;-72
2022/08/30 10:41:27;;;;;;;4.40;3.40;;;;;;;23.39;100.00;99362.61;104056;1283;74477;-71
2022/08/30 10:44:06;;;;;;;4.30;3.20;;;;;;;23.48;100.00;99358.65;104442;1278;61409;-71
2022/08/30 10:46:35;;;;;;;5.50;3.90;;;;;;;23.69;100.00;99351.36;104480;1277;61370;-71
2022/08/30 10:49:07;;;;;;;5.00;3.70;;;;;;;23.86;100.00;99354.43;104420;1278;76287;-70
2022/08/30 10:52:00;;;;;;;4.90;3.50;;;;;;;24.09;100.00;99348.46;104489;1277;70702;-71
2022/08/30 10:54:49;;;;;;;4.00;3.50;;;;;;;24.35;100.00;99350.36;104023;1282;73348;-71
2022/08/30 10:57:16;;;;;;;6.10;3.90;;;;;;;24.50;100.00;99349.09;104527;1281;61258;-71
2022/08/30 10:59:49;;;;;;;3.80;3.40;;;;;;;24.63;100.00;99346.46;104393;1280;62201;-71
2022/08/30 11:02:43;;;;;;;3.10;2.80;;;;;;;24.77;100.00;99339.91;104020;1282;73812;-71
2022/08/30 11:05:31;;;;;;;2.70;2.50;;;;;;;24.91;100.00;99340.39;104415;1281;70433;-69
2022/08/30 11:08:27;;;;;;;3.30;2.70;;;;;;;25.07;100.00;99333.02;104350;1281;72225;-70
2022/08/30 11:11:25;;;;;;;3.60;2.90;;;;;;;25.17;100.00;99329.17;104415;1281;61460;-72
2022/08/30 11:13:54;;;;;;;5.80;3.90;;;;;;;25.37;100.00;99330.58;104393;1281;61334;-70
2022/08/30 11:16:42;;;;;;;3.80;3.50;;;;;;;25.34;100.00;99329.87;104416;1281;75086;-71
2022/08/30 11:19:40;;;;;;;3.10;2.80;;;;;;;25.31;100.00;99327.61;104388;1281;69551;-72
2022/08/30 11:22:10;;;;;;;4.50;3.10;;;;;;;25.10;100.00;99335.11;104089;1281;71431;-71
2022/08/30 11:25:10;;;;;;;3.20;2.60;;;;;;;24.93;100.00;99337.91;104373;1281;61263;-71